F/V Mailys Charlie — FMIW — position and weather

sailwx.info

Track history (hours):
 
Tides and Currents Weather Stations Pressure Air Temp Water Temp Dewpoint Dewpoint Depression Visibility Wind Speed Wind Dir Waves Ship Positions

F/V Mailys Charlie

Last reported at 2017-Mar-25 15:32 UTC. Time now 2017-Mar-25 15:34 UTC.
Position N 47°21' W 002°31'.

Length 19 m.

Type: Fishing. MMSI: 228240800.

Date/timePositionNaut miles runAvg speedWind from/ knotsBaromVisibWave heightAir tempDewpointWater temp
2017-Mar-25 15:32N 47°21' W 002°31'0 0.0
2017-Mar-25 14:32N 47°21' W 002°31'0 0.0
2017-Mar-25 13:32N 47°21' W 002°31'0 0.0
2017-Mar-25 12:33N 47°21' W 002°31'0 0.0
2017-Mar-25 11:33N 47°21' W 002°31'0 0.0
2017-Mar-25 10:32N 47°21' W 002°31'0 0.0
2017-Mar-25 09:32N 47°21' W 002°31'0 0.0
2017-Mar-25 08:33N 47°21' W 002°31'0 0.0
2017-Mar-25 07:33N 47°21' W 002°31'0 0.0
2017-Mar-25 06:33N 47°21' W 002°31'0 0.0
2017-Mar-25 05:32N 47°21' W 002°31'0 0.0
2017-Mar-25 04:33N 47°21' W 002°31'0 0.0
2017-Mar-25 03:33N 47°21' W 002°31'0 0.0
2017-Mar-25 02:33N 47°21' W 002°31'0 0.0
2017-Mar-25 01:32N 47°21' W 002°31'0 0.0
2017-Mar-25 00:32N 47°21' W 002°31'0 0.0
2017-Mar-24 23:33N 47°21' W 002°31'0 0.0
2017-Mar-24 22:34N 47°21' W 002°31'0 0.0
2017-Mar-24 21:32N 47°21' W 002°31'0 0.0
2017-Mar-24 20:33N 47°21' W 002°31'0 0.0
2017-Mar-24 19:34N 47°21' W 002°31'0 0.0
2017-Mar-24 18:33N 47°21' W 002°31'0 0.0
2017-Mar-24 17:33N 47°21' W 002°31'0 0.0
2017-Mar-24 16:32N 47°21' W 002°31'0 0.0
2017-Mar-24 15:32N 47°21' W 002°31'0 0.0
2017-Mar-24 14:33N 47°21' W 002°31'0 0.0
2017-Mar-24 13:32N 47°21' W 002°31'0 0.0
2017-Mar-24 12:32N 47°21' W 002°31'0 0.0
2017-Mar-24 11:32N 47°21' W 002°31'0 0.0
2017-Mar-24 10:32N 47°21' W 002°31'0 0.0
2017-Mar-24 09:32N 47°21' W 002°31'0 0.0
2017-Mar-24 08:32N 47°21' W 002°31'0 0.0
2017-Mar-24 07:33N 47°21' W 002°31'0 0.0
2017-Mar-24 06:33N 47°21' W 002°31'0 0.0
2017-Mar-24 05:32N 47°21' W 002°31'0 0.0
2017-Mar-24 04:32N 47°21' W 002°31'0 0.0
2017-Mar-24 03:32N 47°21' W 002°31'0 0.0
2017-Mar-24 02:33N 47°21' W 002°31'0 0.0
2017-Mar-24 01:32N 47°21' W 002°31'0 0.0
2017-Mar-24 00:32N 47°21' W 002°31'0 0.0
2017-Mar-23 23:32N 47°21' W 002°31'0 0.0
2017-Mar-23 22:32N 47°21' W 002°31'0 0.0
2017-Mar-23 21:32N 47°21' W 002°31'0 0.0
2017-Mar-23 20:32N 47°21' W 002°31'0 0.0
2017-Mar-23 19:33N 47°21' W 002°31'0 0.0
2017-Mar-23 18:33N 47°21' W 002°31'0 0.0
2017-Mar-23 17:33N 47°21' W 002°31'0 0.0
2017-Mar-23 16:33N 47°21' W 002°31'0 0.0
2017-Mar-23 15:34N 47°21' W 002°31'0 0.0
2017-Mar-23 14:32N 47°21' W 002°31'0 0.0
2017-Mar-23 13:33N 47°21' W 002°31'0 0.0
2017-Mar-23 12:33N 47°21' W 002°31'0 0.0
2017-Mar-23 11:33N 47°21' W 002°31'0 0.0
2017-Mar-23 10:32N 47°21' W 002°31'0 0.0
2017-Mar-23 09:29N 47°21' W 002°31'0 0.0
2017-Mar-23 08:29N 47°21' W 002°31'0 0.0
2017-Mar-23 07:07N 47°21' W 002°31'0 0.0
2017-Mar-23 06:33N 47°21' W 002°31'0 0.0
2017-Mar-23 05:33N 47°21' W 002°31'0 0.0
2017-Mar-23 04:33N 47°21' W 002°31'0 0.0
2017-Mar-23 03:33N 47°21' W 002°31'0 0.0
2017-Mar-23 02:33N 47°21' W 002°31'0 0.0
2017-Mar-23 01:33N 47°21' W 002°31'0 0.0
2017-Mar-23 00:33N 47°21' W 002°31'0 0.0
2017-Mar-22 23:33N 47°21' W 002°31'0 0.0
2017-Mar-22 22:33N 47°21' W 002°31'0 0.0
2017-Mar-22 21:34N 47°21' W 002°31'0 0.0
2017-Mar-22 20:33N 47°21' W 002°31'5 5.2
2017-Mar-22 19:32N 47°19' W 002°38'9 9.4
2017-Mar-22 18:32N 47°18' W 002°52'9 9.2
2017-Mar-22 17:32N 47°16' W 003°05'9 8.7
2017-Mar-22 16:32N 47°18' W 003°18'11 9.0
2017-Mar-22 15:22N 47°20' W 003°33'65 1.4
2017-Mar-20 18:14N 47°32' W 005°08'4 0.3
2017-Mar-20 03:21N 47°32' W 005°14'1 1.8
2017-Mar-20 02:33N 47°30' W 005°15'2 2.4
2017-Mar-20 01:32N 47°29' W 005°18'4 0.7
2017-Mar-19 20:26N 47°31' W 005°13'4 0.3
2017-Mar-19 06:28N 47°26' W 005°13'2 1.9
2017-Mar-19 05:21N 47°29' W 005°13'3 1.7
2017-Mar-19 03:33N 47°31' W 005°15'4 3.0
2017-Mar-19 02:22N 47°28' W 005°18'2 2.8
2017-Mar-19 01:34N 47°26' W 005°17'3 2.5
2017-Mar-19 00:33N 47°28' W 005°14'2 2.2
2017-Mar-18 23:33N 47°27' W 005°17'2 1.7
2017-Mar-18 22:33N 47°28' W 005°15'9 8.6
2017-Mar-18 21:27N 47°31' W 005°02'8 8.3
2017-Mar-18 20:30N 47°34' W 004°51'11 8.2
2017-Mar-18 19:08N 47°38' W 004°36'5 8.1
2017-Mar-18 18:33N 47°40' W 004°29'8 8.2
2017-Mar-18 17:33N 47°42' W 004°17'8 8.2
2017-Mar-18 16:33N 47°45' W 004°06'10 7.8
2017-Mar-18 15:16N 47°52' W 003°55'1 0.4
2017-Mar-18 13:26N 47°53' W 003°55'5 5.2
2017-Mar-18 12:33N 47°49' W 003°58'9 8.7
2017-Mar-18 11:33N 47°43' W 004°08'9 8.8
2017-Mar-18 10:31N 47°37' W 004°18'8 8.7
2017-Mar-18 09:33N 47°31' W 004°27'9 8.5
2017-Mar-18 08:32N 47°24' W 004°35'8 8.6
2017-Mar-18 07:33N 47°18' W 004°44'8 8.2
2017-Mar-18 06:33N 47°12' W 004°52'4 1.8
2017-Mar-18 04:29N 47°09' W 004°49'2 0.3
2017-Mar-17 21:33N 47°08' W 004°52'27 2.7
2017-Mar-17 11:25N 47°20' W 005°28'23 2.6
2017-Mar-17 02:23N 47°09' W 004°57'3 1.1
2017-Mar-17 00:07N 47°10' W 004°54'2 2.3
2017-Mar-16 23:20N 47°08' W 004°55'2 2.1
2017-Mar-16 22:27N 47°07' W 004°57'4 0.8
2017-Mar-16 17:24N 47°11' W 004°57'23 3.8
2017-Mar-16 11:14N 47°18' W 005°30'7 0.6
2017-Mar-16 00:21N 47°19' W 005°20'24 5.8
2017-Mar-15 20:14N 47°26' W 004°46'9 9.1
2017-Mar-15 19:17N 47°31' W 004°36'9 8.8
2017-Mar-15 18:12N 47°36' W 004°24'15 8.6
2017-Mar-15 16:29N 47°44' W 004°05'  
Track history (hours):
 
Tides and Currents Weather Stations Pressure Air Temp Water Temp Dewpoint Dewpoint Depression Visibility Wind Speed Wind Dir Waves Ship Positions

F/V Mailys Charlie

Last reported at 2017-Mar-25 15:32 UTC. Time now 2017-Mar-25 15:34 UTC.
Position N 47°21' W 002°31'.

Length 19 m.

Type: Fishing. MMSI: 228240800.

Date/timePositionNaut miles runAvg speedWind from/ knotsBaromVisibWave heightAir tempDewpointWater temp
2017-Mar-25 15:32N 47°21' W 002°31'0 0.0
2017-Mar-25 14:32N 47°21' W 002°31'0 0.0
2017-Mar-25 13:32N 47°21' W 002°31'0 0.0
2017-Mar-25 12:33N 47°21' W 002°31'0 0.0
2017-Mar-25 11:33N 47°21' W 002°31'0 0.0
2017-Mar-25 10:32N 47°21' W 002°31'0 0.0
2017-Mar-25 09:32N 47°21' W 002°31'0 0.0
2017-Mar-25 08:33N 47°21' W 002°31'0 0.0
2017-Mar-25 07:33N 47°21' W 002°31'0 0.0
2017-Mar-25 06:33N 47°21' W 002°31'0 0.0
2017-Mar-25 05:32N 47°21' W 002°31'0 0.0
2017-Mar-25 04:33N 47°21' W 002°31'0 0.0
2017-Mar-25 03:33N 47°21' W 002°31'0 0.0
2017-Mar-25 02:33N 47°21' W 002°31'0 0.0
2017-Mar-25 01:32N 47°21' W 002°31'0 0.0
2017-Mar-25 00:32N 47°21' W 002°31'0 0.0
2017-Mar-24 23:33N 47°21' W 002°31'0 0.0
2017-Mar-24 22:34N 47°21' W 002°31'0 0.0
2017-Mar-24 21:32N 47°21' W 002°31'0 0.0
2017-Mar-24 20:33N 47°21' W 002°31'0 0.0
2017-Mar-24 19:34N 47°21' W 002°31'0 0.0
2017-Mar-24 18:33N 47°21' W 002°31'0 0.0
2017-Mar-24 17:33N 47°21' W 002°31'0 0.0
2017-Mar-24 16:32N 47°21' W 002°31'0 0.0
2017-Mar-24 15:32N 47°21' W 002°31'0 0.0
2017-Mar-24 14:33N 47°21' W 002°31'0 0.0
2017-Mar-24 13:32N 47°21' W 002°31'0 0.0
2017-Mar-24 12:32N 47°21' W 002°31'0 0.0
2017-Mar-24 11:32N 47°21' W 002°31'0 0.0
2017-Mar-24 10:32N 47°21' W 002°31'0 0.0
2017-Mar-24 09:32N 47°21' W 002°31'0 0.0
2017-Mar-24 08:32N 47°21' W 002°31'0 0.0
2017-Mar-24 07:33N 47°21' W 002°31'0 0.0
2017-Mar-24 06:33N 47°21' W 002°31'0 0.0
2017-Mar-24 05:32N 47°21' W 002°31'0 0.0
2017-Mar-24 04:32N 47°21' W 002°31'0 0.0
2017-Mar-24 03:32N 47°21' W 002°31'0 0.0
2017-Mar-24 02:33N 47°21' W 002°31'0 0.0
2017-Mar-24 01:32N 47°21' W 002°31'0 0.0
2017-Mar-24 00:32N 47°21' W 002°31'0 0.0
2017-Mar-23 23:32N 47°21' W 002°31'0 0.0
2017-Mar-23 22:32N 47°21' W 002°31'0 0.0
2017-Mar-23 21:32N 47°21' W 002°31'0 0.0
2017-Mar-23 20:32N 47°21' W 002°31'0 0.0
2017-Mar-23 19:33N 47°21' W 002°31'0 0.0
2017-Mar-23 18:33N 47°21' W 002°31'0 0.0
2017-Mar-23 17:33N 47°21' W 002°31'0 0.0
2017-Mar-23 16:33N 47°21' W 002°31'0 0.0
2017-Mar-23 15:34N 47°21' W 002°31'0 0.0
2017-Mar-23 14:32N 47°21' W 002°31'0 0.0
2017-Mar-23 13:33N 47°21' W 002°31'0 0.0
2017-Mar-23 12:33N 47°21' W 002°31'0 0.0
2017-Mar-23 11:33N 47°21' W 002°31'0 0.0
2017-Mar-23 10:32N 47°21' W 002°31'0 0.0
2017-Mar-23 09:29N 47°21' W 002°31'0 0.0
2017-Mar-23 08:29N 47°21' W 002°31'0 0.0
2017-Mar-23 07:07N 47°21' W 002°31'0 0.0
2017-Mar-23 06:33N 47°21' W 002°31'0 0.0
2017-Mar-23 05:33N 47°21' W 002°31'0 0.0
2017-Mar-23 04:33N 47°21' W 002°31'0 0.0
2017-Mar-23 03:33N 47°21' W 002°31'0 0.0
2017-Mar-23 02:33N 47°21' W 002°31'0 0.0
2017-Mar-23 01:33N 47°21' W 002°31'0 0.0
2017-Mar-23 00:33N 47°21' W 002°31'0 0.0
2017-Mar-22 23:33N 47°21' W 002°31'0 0.0
2017-Mar-22 22:33N 47°21' W 002°31'0 0.0
2017-Mar-22 21:34N 47°21' W 002°31'0 0.0
2017-Mar-22 20:33N 47°21' W 002°31'5 5.2
2017-Mar-22 19:32N 47°19' W 002°38'9 9.4
2017-Mar-22 18:32N 47°18' W 002°52'9 9.2
2017-Mar-22 17:32N 47°16' W 003°05'9 8.7
2017-Mar-22 16:32N 47°18' W 003°18'11 9.0
2017-Mar-22 15:22N 47°20' W 003°33'65 1.4
2017-Mar-20 18:14N 47°32' W 005°08'4 0.3
2017-Mar-20 03:21N 47°32' W 005°14'1 1.8
2017-Mar-20 02:33N 47°30' W 005°15'2 2.4
2017-Mar-20 01:32N 47°29' W 005°18'4 0.7
2017-Mar-19 20:26N 47°31' W 005°13'4 0.3
2017-Mar-19 06:28N 47°26' W 005°13'2 1.9
2017-Mar-19 05:21N 47°29' W 005°13'3 1.7
2017-Mar-19 03:33N 47°31' W 005°15'4 3.0
2017-Mar-19 02:22N 47°28' W 005°18'2 2.8
2017-Mar-19 01:34N 47°26' W 005°17'3 2.5
2017-Mar-19 00:33N 47°28' W 005°14'2 2.2
2017-Mar-18 23:33N 47°27' W 005°17'2 1.7
2017-Mar-18 22:33N 47°28' W 005°15'9 8.6
2017-Mar-18 21:27N 47°31' W 005°02'8 8.3
2017-Mar-18 20:30N 47°34' W 004°51'11 8.2
2017-Mar-18 19:08N 47°38' W 004°36'5 8.1
2017-Mar-18 18:33N 47°40' W 004°29'8 8.2
2017-Mar-18 17:33N 47°42' W 004°17'8 8.2
2017-Mar-18 16:33N 47°45' W 004°06'10 7.8
2017-Mar-18 15:16N 47°52' W 003°55'1 0.4
2017-Mar-18 13:26N 47°53' W 003°55'5 5.2
2017-Mar-18 12:33N 47°49' W 003°58'9 8.7
2017-Mar-18 11:33N 47°43' W 004°08'9 8.8
2017-Mar-18 10:31N 47°37' W 004°18'8 8.7
2017-Mar-18 09:33N 47°31' W 004°27'9 8.5
2017-Mar-18 08:32N 47°24' W 004°35'8 8.6
2017-Mar-18 07:33N 47°18' W 004°44'8 8.2
2017-Mar-18 06:33N 47°12' W 004°52'4 1.8
2017-Mar-18 04:29N 47°09' W 004°49'2 0.3
2017-Mar-17 21:33N 47°08' W 004°52'27 2.7
2017-Mar-17 11:25N 47°20' W 005°28'23 2.6
2017-Mar-17 02:23N 47°09' W 004°57'3 1.1
2017-Mar-17 00:07N 47°10' W 004°54'2 2.3
2017-Mar-16 23:20N 47°08' W 004°55'2 2.1
2017-Mar-16 22:27N 47°07' W 004°57'4 0.8
2017-Mar-16 17:24N 47°11' W 004°57'23 3.8
2017-Mar-16 11:14N 47°18' W 005°30'7 0.6
2017-Mar-16 00:21N 47°19' W 005°20'24 5.8
2017-Mar-15 20:14N 47°26' W 004°46'9 9.1
2017-Mar-15 19:17N 47°31' W 004°36'9 8.8
2017-Mar-15 18:12N 47°36' W 004°24'15 8.6
2017-Mar-15 16:29N 47°44' W 004°05'  

Dump ship's entire track history